createdAt,value
2019-02-25T00:01:29.114Z,52.90
2019-02-25T00:03:59.458Z,52.90
2019-02-25T00:06:30.039Z,53.10
2019-02-25T00:09:19.042Z,52.80
2019-02-25T00:11:48.859Z,53.60
2019-02-25T00:14:19.516Z,53.60
2019-02-25T00:16:49.678Z,53.00
2019-02-25T00:19:20.291Z,53.10
2019-02-25T00:21:50.470Z,53.60
2019-02-25T00:24:21.006Z,53.10
2019-02-25T00:26:50.824Z,53.90
2019-02-25T00:29:20.974Z,56.00
2019-02-25T00:31:51.270Z,56.50
2019-02-25T00:34:21.474Z,56.40
2019-02-25T00:36:51.720Z,57.80
2019-02-25T00:39:22.089Z,58.00
2019-02-25T00:41:52.668Z,58.80
2019-02-25T00:44:22.915Z,57.60
2019-02-25T00:46:53.117Z,56.00
2019-02-25T00:49:23.777Z,56.60
2019-02-25T00:51:54.382Z,57.10
2019-02-25T00:54:24.287Z,56.90
2019-02-25T00:56:54.289Z,57.70
2019-02-25T00:59:24.841Z,58.00
2019-02-25T01:01:55.402Z,59.50
2019-02-25T01:04:25.734Z,59.80
2019-02-25T01:06:56.027Z,59.50
2019-02-25T01:09:26.568Z,59.60
2019-02-25T01:11:57.068Z,59.00
2019-02-25T01:14:27.571Z,58.00
2019-02-25T01:16:58.086Z,58.30
2019-02-25T01:19:28.569Z,59.10
2019-02-25T01:21:59.100Z,59.20
2019-02-25T01:24:29.373Z,59.20
2019-02-25T01:26:59.942Z,59.20
2019-02-25T01:29:30.290Z,59.10
2019-02-25T01:32:00.488Z,59.40
2019-02-25T01:34:30.776Z,59.50
2019-02-25T01:37:01.292Z,60.40
2019-02-25T01:39:31.819Z,60.30
2019-02-25T01:42:02.452Z,60.60
2019-02-25T01:44:33.059Z,60.00
2019-02-25T01:47:03.375Z,59.40
2019-02-25T01:49:33.260Z,58.90
2019-02-25T01:52:03.769Z,59.10
2019-02-25T01:54:34.319Z,59.10
2019-02-25T01:57:04.848Z,58.60
2019-02-25T01:59:34.776Z,58.50
2019-02-25T02:02:04.679Z,58.40
2019-02-25T02:04:34.883Z,58.90
2019-02-25T02:07:05.394Z,59.30
2019-02-25T02:09:35.950Z,59.90
2019-02-25T02:12:06.484Z,60.20
2019-02-25T02:14:36.806Z,60.60
2019-02-25T02:17:07.347Z,60.60
2019-02-25T02:19:37.942Z,61.20
2019-02-25T02:22:08.408Z,60.40
2019-02-25T02:24:39.037Z,60.80
2019-02-25T02:27:09.230Z,60.40
2019-02-25T02:29:39.699Z,59.90
2019-02-25T02:32:10.262Z,58.80
2019-02-25T02:34:40.762Z,58.90
2019-02-25T02:37:11.090Z,57.60
2019-02-25T02:39:41.954Z,58.30
2019-02-25T02:42:20.196Z,59.10
2019-02-25T02:45:20.025Z,59.30
2019-02-25T02:48:02.932Z,59.60
2019-02-25T02:50:52.123Z,60.00
2019-02-25T02:53:22.066Z,61.20
2019-02-25T02:55:52.783Z,61.00
2019-02-25T02:58:23.102Z,62.50
2019-02-25T03:00:53.279Z,61.30
2019-02-25T03:03:23.502Z,60.60
2019-02-25T03:05:54.038Z,61.30
2019-02-25T03:08:24.464Z,61.40
2019-02-25T03:10:54.626Z,61.50
2019-02-25T03:13:25.154Z,61.30
2019-02-25T03:15:55.695Z,61.40
2019-02-25T03:18:26.185Z,61.70
2019-02-25T03:20:56.458Z,62.20
2019-02-25T03:23:27.023Z,63.00
2019-02-25T03:25:57.200Z,63.00
2019-02-25T03:28:27.382Z,63.20
2019-02-25T03:30:57.858Z,63.20
2019-02-25T03:33:28.351Z,63.20
2019-02-25T03:35:58.924Z,63.10
2019-02-25T03:38:29.539Z,63.10
2019-02-25T03:40:59.855Z,63.20
2019-02-25T03:43:30.479Z,61.90
2019-02-25T03:46:00.757Z,61.60
2019-02-25T03:48:31.262Z,61.80
2019-02-25T03:51:01.377Z,61.40
2019-02-25T03:53:31.335Z,60.70
2019-02-25T03:56:01.925Z,61.80
2019-02-25T03:58:32.594Z,60.70
2019-02-25T04:01:02.944Z,60.70
2019-02-25T04:03:32.740Z,58.90
2019-02-25T04:06:02.653Z,57.30
2019-02-25T04:08:33.264Z,57.70
2019-02-25T04:11:03.760Z,57.70
2019-02-25T04:13:34.301Z,59.00
2019-02-25T04:16:04.143Z,59.40
2019-02-25T04:18:34.642Z,60.30
2019-02-25T04:21:05.104Z,59.40
2019-02-25T04:23:35.329Z,60.50
2019-02-25T04:26:05.963Z,60.70
2019-02-25T04:28:36.457Z,61.60
2019-02-25T04:31:07.138Z,61.80
2019-02-25T04:33:37.741Z,61.70
2019-02-25T04:36:08.264Z,61.90
2019-02-25T04:38:38.824Z,61.40
2019-02-25T04:41:09.331Z,61.40
2019-02-25T04:43:39.991Z,61.90
2019-02-25T04:46:10.476Z,63.10
2019-02-25T04:48:59.398Z,63.20
2019-02-25T04:51:29.898Z,63.60
2019-02-25T04:54:00.157Z,62.20
2019-02-25T04:56:29.971Z,62.10
2019-02-25T04:59:00.582Z,62.20
2019-02-25T05:01:30.959Z,61.80
2019-02-25T05:04:01.435Z,62.60
2019-02-25T05:06:32.070Z,63.20
2019-02-25T05:09:02.299Z,62.20
2019-02-25T05:11:34.395Z,62.20
2019-02-25T05:14:04.624Z,62.30
2019-02-25T05:16:35.092Z,62.70
2019-02-25T05:19:05.527Z,62.50
2019-02-25T05:21:35.996Z,61.80
2019-02-25T05:24:06.542Z,61.00
2019-02-25T05:26:36.464Z,59.50
2019-02-25T05:29:07.028Z,62.10
2019-02-25T05:31:37.308Z,62.30
2019-02-25T05:34:07.887Z,63.10
2019-02-25T05:36:38.464Z,63.10
2019-02-25T05:39:09.255Z,63.10
2019-02-25T05:41:39.837Z,62.80
2019-02-25T05:44:10.175Z,62.80
2019-02-25T05:46:40.671Z,63.00
2019-02-25T05:49:11.323Z,64.50
2019-02-25T05:51:41.861Z,64.00
2019-02-25T05:54:12.399Z,64.30
2019-02-25T05:56:43.794Z,64.00
2019-02-25T05:59:13.671Z,64.40
2019-02-25T06:01:44.262Z,64.40
2019-02-25T06:04:14.785Z,64.20
2019-02-25T06:06:45.249Z,64.10
2019-02-25T06:09:15.803Z,64.00
2019-02-25T06:11:46.017Z,63.90
2019-02-25T06:14:16.573Z,64.30
2019-02-25T06:16:46.490Z,64.10
2019-02-25T06:19:17.047Z,64.20
2019-02-25T06:21:47.645Z,63.90
2019-02-25T06:24:17.713Z,65.30
2019-02-25T06:26:47.995Z,65.50
2019-02-25T06:29:18.519Z,65.50
2019-02-25T06:31:48.990Z,65.50
2019-02-25T06:34:19.206Z,65.10
2019-02-25T06:36:49.739Z,66.50
2019-02-25T06:39:20.227Z,66.70
2019-02-25T06:41:50.713Z,66.30
2019-02-25T06:44:21.209Z,66.40
2019-02-25T06:46:51.435Z,67.20
2019-02-25T06:49:21.639Z,67.40
2019-02-25T06:51:52.234Z,68.00
2019-02-25T06:54:22.883Z,67.60
2019-02-25T06:56:53.491Z,67.40
2019-02-25T06:59:24.070Z,67.10
2019-02-25T07:01:55.957Z,67.40
2019-02-25T07:04:45.212Z,67.40
2019-02-25T07:07:22.507Z,68.20
2019-02-25T07:10:09.399Z,68.50
2019-02-25T07:13:17.086Z,68.60
2019-02-25T07:16:03.476Z,68.70
2019-02-25T07:19:01.642Z,68.60
2019-02-25T07:21:36.888Z,68.10
2019-02-25T07:24:24.803Z,68.10
2019-02-25T07:27:16.719Z,67.90
2019-02-25T07:29:58.597Z,67.80
2019-02-25T07:32:36.915Z,67.70
2019-02-25T07:35:25.869Z,67.80
2019-02-25T07:38:04.603Z,67.90
2019-02-25T07:40:50.879Z,68.20
2019-02-25T07:43:42.989Z,68.00
2019-02-25T07:46:35.341Z,68.40
2019-02-25T07:49:24.388Z,68.70
2019-02-25T07:52:28.792Z,69.80
2019-02-25T07:55:11.391Z,69.40
2019-02-25T07:58:15.583Z,70.50
2019-02-25T08:00:52.781Z,71.00
2019-02-25T08:03:37.023Z,71.10
2019-02-25T08:06:24.545Z,70.00
2019-02-25T08:09:16.886Z,70.70
2019-02-25T08:12:10.325Z,70.90
2019-02-25T08:14:58.258Z,71.30
2019-02-25T08:17:56.727Z,70.80
2019-02-25T08:20:46.087Z,70.00
2019-02-25T08:23:36.268Z,69.50
2019-02-25T08:26:19.185Z,69.30
2019-02-25T08:29:04.873Z,66.60
2019-02-25T08:31:51.972Z,66.10
2019-02-25T08:34:41.237Z,66.10
2019-02-25T08:37:59.582Z,67.30
2019-02-25T08:40:58.203Z,66.90
2019-02-25T08:43:31.737Z,64.40
2019-02-25T08:46:33.169Z,62.60
2019-02-25T08:49:24.881Z,61.20
2019-02-25T08:51:55.480Z,58.60
2019-02-25T08:54:25.681Z,58.30
2019-02-25T08:56:55.961Z,59.40
2019-02-25T08:59:26.267Z,59.40
2019-02-25T09:01:56.464Z,57.80
2019-02-25T09:04:26.987Z,55.50
2019-02-25T09:06:57.550Z,55.50
2019-02-25T09:09:27.793Z,55.70
2019-02-25T09:11:57.608Z,55.70
2019-02-25T09:14:28.141Z,55.00
2019-02-25T09:16:58.607Z,55.20
2019-02-25T09:19:29.180Z,55.50
2019-02-25T09:21:59.763Z,56.00
2019-02-25T09:24:29.972Z,55.50
2019-02-25T09:27:00.507Z,54.40
2019-02-25T09:29:30.733Z,54.40
2019-02-25T09:32:01.285Z,53.80
2019-02-25T09:34:31.271Z,54.30
2019-02-25T09:37:01.083Z,54.30
2019-02-25T09:39:31.260Z,54.20
2019-02-25T09:42:02.183Z,52.00
2019-02-25T09:44:32.829Z,51.30
2019-02-25T09:47:05.127Z,52.70
2019-02-25T09:49:35.491Z,52.40
2019-02-25T09:52:06.056Z,49.70
2019-02-25T09:54:36.181Z,50.50
2019-02-25T09:57:06.432Z,51.80
2019-02-25T09:59:37.024Z,53.60
2019-02-25T10:02:07.599Z,54.70
2019-02-25T10:04:38.223Z,54.70
2019-02-25T10:07:08.367Z,54.80
2019-02-25T10:09:38.173Z,53.80
2019-02-25T10:12:08.689Z,52.10
2019-02-25T10:14:38.631Z,52.70
2019-02-25T10:17:09.301Z,47.70
2019-02-25T10:19:39.758Z,46.40
2019-02-25T10:22:09.917Z,45.70
2019-02-25T10:24:40.670Z,48.10
2019-02-25T10:27:10.973Z,49.00
2019-02-25T10:29:41.181Z,47.20
2019-02-25T10:32:11.845Z,47.70
2019-02-25T10:34:42.450Z,48.50
2019-02-25T10:37:13.613Z,47.10
2019-02-25T10:39:45.822Z,47.30
2019-02-25T10:42:17.417Z,46.40
2019-02-25T10:44:47.953Z,47.00
2019-02-25T10:47:19.880Z,47.70
2019-02-25T10:49:50.193Z,45.20
2019-02-25T10:52:20.489Z,45.60
2019-02-25T10:54:52.449Z,47.00
2019-02-25T10:57:27.187Z,45.30
2019-02-25T10:59:56.826Z,46.90
2019-02-25T11:02:27.235Z,46.70
2019-02-25T11:04:57.842Z,46.50
2019-02-25T11:07:28.369Z,43.10
2019-02-25T11:10:13.973Z,43.10
2019-02-25T11:12:45.699Z,45.80
2019-02-25T11:15:16.243Z,46.50
2019-02-25T11:17:47.651Z,45.90
2019-02-25T11:20:19.031Z,46.10
2019-02-25T11:22:49.189Z,46.70
2019-02-25T11:25:21.518Z,46.60
2019-02-25T11:27:52.131Z,47.00
2019-02-25T11:30:23.896Z,46.10
2019-02-25T11:32:56.218Z,46.20
2019-02-25T11:35:27.014Z,45.90
2019-02-25T11:37:59.767Z,45.30
2019-02-25T11:40:31.257Z,45.80
2019-02-25T11:43:01.832Z,45.10
2019-02-25T11:45:32.460Z,44.10
2019-02-25T11:48:03.075Z,45.00
2019-02-25T11:50:33.328Z,44.90
2019-02-25T11:53:03.634Z,46.00
2019-02-25T11:55:34.191Z,45.00
2019-02-25T11:58:04.800Z,46.00
2019-02-25T12:00:35.249Z,44.60
2019-02-25T12:03:05.887Z,44.50
2019-02-25T12:05:35.839Z,44.60
2019-02-25T12:08:05.640Z,45.00
2019-02-25T12:10:36.275Z,45.70
2019-02-25T12:13:06.515Z,45.20
2019-02-25T12:15:37.095Z,43.10
2019-02-25T12:18:07.808Z,42.90
2019-02-25T12:20:38.259Z,44.50
2019-02-25T12:23:08.807Z,43.50
2019-02-25T12:25:39.167Z,43.20
2019-02-25T12:28:09.674Z,43.30
2019-02-25T12:30:40.182Z,44.00
2019-02-25T12:33:10.456Z,44.00
2019-02-25T12:35:41.026Z,44.70
2019-02-25T12:38:11.615Z,45.30
2019-02-25T12:40:41.581Z,44.10
2019-02-25T12:43:12.029Z,43.70
2019-02-25T12:45:42.303Z,42.40
2019-02-25T12:48:13.463Z,42.90
2019-02-25T12:50:43.709Z,43.30
2019-02-25T12:53:14.835Z,43.60
2019-02-25T12:55:45.149Z,42.90
2019-02-25T12:58:15.705Z,43.70
2019-02-25T13:00:46.611Z,43.70
2019-02-25T13:03:17.263Z,43.80
2019-02-25T13:05:47.985Z,44.00
2019-02-25T13:08:18.213Z,43.70
2019-02-25T13:10:49.015Z,43.10
2019-02-25T13:13:19.773Z,44.10
2019-02-25T13:15:49.949Z,44.20
2019-02-25T13:18:20.447Z,44.00
2019-02-25T13:20:50.919Z,43.10
2019-02-25T13:23:21.216Z,43.40
2019-02-25T13:25:51.335Z,42.90
2019-02-25T13:28:23.556Z,43.40
2019-02-25T13:30:53.947Z,42.90
2019-02-25T13:33:24.559Z,42.80
2019-02-25T13:35:57.001Z,43.40
2019-02-25T13:38:27.172Z,43.30
2019-02-25T13:40:57.798Z,43.90
2019-02-25T13:43:28.622Z,44.10
2019-02-25T13:45:58.927Z,44.20
2019-02-25T13:48:29.527Z,44.30
2019-02-25T13:51:00.304Z,44.50
2019-02-25T13:53:31.016Z,45.10
2019-02-25T13:56:01.618Z,44.70
2019-02-25T13:58:32.216Z,44.60
2019-02-25T14:01:03.308Z,45.00
2019-02-25T14:03:34.105Z,45.50
2019-02-25T14:06:04.396Z,46.20
2019-02-25T14:08:35.080Z,47.30
2019-02-25T14:11:05.439Z,47.90
2019-02-25T14:13:35.684Z,48.60
2019-02-25T14:16:06.218Z,48.80
2019-02-25T14:18:36.505Z,48.90
2019-02-25T14:21:07.441Z,49.20
2019-02-25T14:23:38.232Z,49.70
2019-02-25T14:26:10.389Z,49.90
2019-02-25T14:28:40.776Z,50.50
2019-02-25T14:31:11.482Z,50.90
2019-02-25T14:33:42.341Z,51.60
2019-02-25T14:36:12.778Z,53.20
2019-02-25T14:38:43.118Z,53.10
2019-02-25T14:41:13.732Z,53.40
2019-02-25T14:43:48.708Z,53.50
2019-02-25T14:46:18.423Z,53.70
2019-02-25T14:48:48.763Z,53.90
2019-02-25T14:51:19.446Z,54.30
2019-02-25T14:53:52.075Z,54.80
2019-02-25T14:56:22.360Z,55.40
2019-02-25T14:58:53.192Z,55.80
2019-02-25T15:01:25.658Z,56.00
2019-02-25T15:03:57.642Z,56.40
2019-02-25T15:06:28.803Z,56.30
2019-02-25T15:09:01.801Z,56.20
2019-02-25T15:11:32.517Z,56.90
2019-02-25T15:14:02.830Z,57.40
2019-02-25T15:16:33.111Z,57.50
2019-02-25T15:19:03.506Z,58.10
2019-02-25T15:21:33.784Z,58.30
2019-02-25T15:24:04.651Z,58.60
2019-02-25T15:26:42.548Z,59.10
2019-02-25T15:29:09.288Z,59.50
2019-02-25T15:31:40.055Z,59.60
2019-02-25T15:34:10.978Z,59.80
2019-02-25T15:36:42.668Z,59.70
2019-02-25T15:39:13.579Z,59.80
2019-02-25T15:41:44.735Z,59.70
2019-02-25T15:44:16.689Z,60.00
2019-02-25T15:46:46.916Z,60.20
2019-02-25T15:49:19.395Z,60.70
2019-02-25T15:51:49.707Z,60.80
2019-02-25T15:54:20.452Z,61.10
2019-02-25T15:56:50.747Z,61.70
2019-02-25T15:59:21.458Z,62.30
2019-02-25T16:01:52.056Z,62.00
2019-02-25T16:04:22.393Z,62.30
2019-02-25T16:07:11.330Z,63.10
2019-02-25T16:09:41.904Z,63.50
2019-02-25T16:12:13.106Z,64.20
2019-02-25T16:14:44.417Z,64.50
2019-02-25T16:17:16.144Z,65.30
2019-02-25T16:19:47.743Z,65.60
2019-02-25T16:22:19.158Z,65.60
2019-02-25T16:24:49.175Z,65.80
2019-02-25T16:27:21.067Z,66.20
2019-02-25T16:29:51.827Z,66.50
2019-02-25T16:32:24.104Z,66.80
2019-02-25T16:34:56.482Z,67.50
2019-02-25T16:37:29.124Z,67.50
2019-02-25T16:40:01.158Z,67.30
2019-02-25T16:42:33.139Z,68.40
2019-02-25T16:45:06.258Z,67.50
2019-02-25T16:47:37.716Z,67.80
2019-02-25T16:50:08.748Z,67.70
2019-02-25T16:52:41.170Z,67.50
2019-02-25T16:55:11.474Z,68.00
2019-02-25T16:57:43.464Z,68.30
2019-02-25T17:00:15.245Z,69.80
2019-02-25T17:02:45.686Z,69.00
2019-02-25T17:05:17.160Z,70.30
2019-02-25T17:07:49.000Z,70.40
2019-02-25T17:10:23.966Z,71.30
2019-02-25T17:12:52.542Z,71.90
2019-02-25T17:15:26.289Z,72.20
2019-02-25T17:17:58.348Z,72.20
2019-02-25T17:20:28.620Z,72.10
2019-02-25T17:22:59.833Z,73.10
2019-02-25T17:25:31.669Z,74.00
2019-02-25T17:28:02.438Z,74.30
2019-02-25T17:30:33.096Z,74.30
2019-02-25T17:33:05.565Z,74.20
2019-02-25T17:35:36.175Z,73.70
2019-02-25T17:38:06.501Z,74.10
2019-02-25T17:40:37.132Z,74.40
2019-02-25T17:43:09.096Z,74.70
2019-02-25T17:45:41.123Z,74.90
2019-02-25T17:48:13.731Z,74.40
2019-02-25T17:50:43.889Z,73.80
2019-02-25T17:53:14.221Z,73.30
2019-02-25T17:55:45.174Z,72.60
2019-02-25T17:58:17.058Z,71.90
2019-02-25T18:00:48.428Z,70.90
2019-02-25T18:03:19.509Z,70.30
2019-02-25T18:05:51.166Z,70.10
2019-02-25T18:08:21.593Z,69.10
2019-02-25T18:10:54.008Z,68.80
2019-02-25T18:13:25.852Z,68.40
2019-02-25T18:15:56.163Z,68.40
2019-02-25T18:18:26.865Z,68.40
2019-02-25T18:20:57.620Z,68.40
2019-02-25T18:23:27.961Z,68.40
2019-02-25T18:25:58.840Z,68.50
2019-02-25T18:28:29.199Z,69.00
2019-02-25T18:31:00.280Z,69.30
2019-02-25T18:33:32.118Z,69.70
2019-02-25T18:36:04.235Z,70.20
2019-02-25T18:38:35.359Z,70.80
2019-02-25T18:41:06.959Z,71.00
2019-02-25T18:43:38.108Z,71.20
2019-02-25T18:46:08.780Z,71.50
2019-02-25T18:48:40.727Z,71.30
2019-02-25T18:51:10.991Z,71.20
2019-02-25T18:53:41.332Z,71.50
2019-02-25T18:56:12.473Z,71.50
2019-02-25T18:58:43.688Z,71.50
2019-02-25T19:01:15.384Z,71.90
2019-02-25T19:03:46.033Z,71.90
2019-02-25T19:06:17.265Z,72.20
2019-02-25T19:08:49.387Z,72.70
2019-02-25T19:11:21.358Z,73.00
2019-02-25T19:13:54.379Z,72.90
2019-02-25T19:16:24.703Z,73.30
2019-02-25T19:18:55.021Z,73.80
2019-02-25T19:21:27.223Z,74.10
2019-02-25T19:23:57.697Z,74.40
2019-02-25T19:26:28.592Z,74.70
2019-02-25T19:28:59.323Z,74.80
2019-02-25T19:31:29.780Z,75.00
2019-02-25T19:34:00.892Z,75.00
2019-02-25T19:36:32.537Z,75.40
2019-02-25T19:39:07.269Z,75.40
2019-02-25T19:41:35.247Z,76.00
2019-02-25T19:44:05.690Z,76.30
2019-02-25T19:46:37.308Z,76.00
2019-02-25T19:49:09.254Z,75.30
2019-02-25T19:51:41.093Z,75.50
2019-02-25T19:54:13.940Z,75.40
2019-02-25T19:56:45.982Z,75.50
2019-02-25T19:59:18.879Z,75.30
2019-02-25T20:01:49.200Z,74.90
2019-02-25T20:04:19.841Z,74.80
2019-02-25T20:06:51.369Z,74.60
2019-02-25T20:09:23.114Z,74.40
2019-02-25T20:11:53.809Z,74.60
2019-02-25T20:14:24.517Z,75.30
2019-02-25T20:16:55.091Z,75.30
2019-02-25T20:19:25.786Z,75.20
2019-02-25T20:21:56.869Z,75.20
2019-02-25T20:24:27.172Z,75.00
2019-02-25T20:27:00.209Z,75.10
2019-02-25T20:29:29.951Z,75.60
2019-02-25T20:32:00.630Z,75.80
2019-02-25T20:34:32.086Z,75.70
2019-02-25T20:37:03.954Z,76.00
2019-02-25T20:39:35.920Z,76.60
2019-02-25T20:42:06.197Z,78.00
2019-02-25T20:44:36.745Z,77.50
2019-02-25T20:47:07.224Z,77.50
2019-02-25T20:49:37.747Z,78.20
2019-02-25T20:52:08.142Z,78.10
2019-02-25T20:54:40.714Z,78.40
2019-02-25T20:57:12.236Z,79.10
2019-02-25T20:59:42.901Z,79.20
2019-02-25T21:02:16.135Z,79.10
2019-02-25T21:04:47.941Z,79.00
2019-02-25T21:07:18.270Z,79.10
2019-02-25T21:09:49.985Z,79.20
2019-02-25T21:12:20.780Z,79.00
2019-02-25T21:14:51.337Z,79.60
2019-02-25T21:17:22.037Z,79.10
2019-02-25T21:19:52.573Z,79.50
2019-02-25T21:22:23.352Z,78.90
2019-02-25T21:24:55.897Z,78.90
2019-02-25T21:27:30.220Z,78.70
2019-02-25T21:30:01.567Z,79.60
2019-02-25T21:32:31.830Z,79.50
2019-02-25T21:35:04.361Z,79.30
2019-02-25T21:37:34.554Z,79.50
2019-02-25T21:40:07.357Z,80.40
2019-02-25T21:42:39.035Z,80.30
2019-02-25T21:45:10.465Z,80.80
2019-02-25T21:47:41.230Z,81.00
2019-02-25T21:50:12.561Z,81.60
2019-02-25T21:52:43.557Z,81.80
2019-02-25T21:55:15.873Z,82.00
2019-02-25T21:57:46.053Z,81.90
2019-02-25T22:00:18.128Z,81.70
2019-02-25T22:02:50.920Z,83.40
2019-02-25T22:05:23.173Z,83.70
2019-02-25T22:07:55.335Z,83.60
2019-02-25T22:10:25.597Z,84.20
2019-02-25T22:12:56.171Z,84.10
2019-02-25T22:15:26.639Z,84.30
2019-02-25T22:17:57.211Z,84.40
2019-02-25T22:20:27.471Z,85.40
2019-02-25T22:22:59.120Z,84.20
2019-02-25T22:25:30.095Z,83.60
2019-02-25T22:28:01.653Z,83.70
2019-02-25T22:30:32.272Z,84.70
2019-02-25T22:33:04.701Z,83.70
2019-02-25T22:35:37.350Z,83.60
2019-02-25T22:38:07.057Z,83.80
2019-02-25T22:40:38.996Z,83.80
2019-02-25T22:43:10.097Z,84.40
2019-02-25T22:45:42.027Z,84.10
2019-02-25T22:48:13.970Z,84.30
2019-02-25T22:50:44.549Z,84.30
2019-02-25T22:53:14.786Z,84.60
2019-02-25T22:55:47.293Z,85.00
2019-02-25T22:58:17.259Z,85.20
2019-02-25T23:00:52.457Z,86.10
2019-02-25T23:03:25.773Z,89.20
2019-02-25T23:05:55.919Z,89.20
2019-02-25T23:08:26.449Z,89.10
2019-02-25T23:10:57.451Z,89.70
2019-02-25T23:13:29.889Z,89.40
2019-02-25T23:16:00.318Z,89.00
2019-02-25T23:18:30.543Z,88.50
2019-02-25T23:21:03.007Z,88.90
2019-02-25T23:23:35.143Z,89.60
2019-02-25T23:26:05.057Z,89.70
2019-02-25T23:28:35.733Z,89.80
2019-02-25T23:31:05.969Z,89.80
2019-02-25T23:33:40.200Z,89.60
2019-02-25T23:36:11.042Z,89.30
2019-02-25T23:38:41.195Z,88.90
2019-02-25T23:41:12.816Z,89.20
2019-02-25T23:43:44.516Z,88.60
2019-02-25T23:46:15.323Z,88.90
2019-02-25T23:48:46.580Z,89.00
2019-02-25T23:51:19.083Z,88.90
2019-02-25T23:53:50.860Z,89.40
2019-02-25T23:56:22.895Z,89.30
2019-02-25T23:58:54.011Z,88.70
